sensor_id;sensor_type;location;lat;lon;timestamp;P1;durP1;ratioP1;P2;durP2;ratioP2
64686;SDS011;51113;53.646;-113.674;2022-10-18T00:01:43;12.98;;;2.97;;
64686;SDS011;51113;53.646;-113.674;2022-10-18T00:04:11;13.20;;;3.47;;
64686;SDS011;51113;53.646;-113.674;2022-10-18T00:06:40;9.90;;;2.25;;
64686;SDS011;51113;53.646;-113.674;2022-10-18T00:09:09;10.32;;;2.30;;
64686;SDS011;51113;53.646;-113.674;2022-10-18T00:11:37;10.63;;;2.75;;
64686;SDS011;51113;53.646;-113.674;2022-10-18T00:14:06;25.25;;;3.20;;
64686;SDS011;51113;53.646;-113.674;2022-10-18T00:16:35;12.63;;;2.20;;
64686;SDS011;51113;53.646;-113.674;2022-10-18T00:19:04;12.43;;;2.10;;
64686;SDS011;51113;53.646;-113.674;2022-10-18T00:21:33;13.45;;;2.42;;
64686;SDS011;51113;53.646;-113.674;2022-10-18T00:24:02;9.38;;;2.55;;
64686;SDS011;51113;53.646;-113.674;2022-10-18T00:26:31;9.82;;;2.60;;
64686;SDS011;51113;53.646;-113.674;2022-10-18T00:29:03;15.95;;;2.75;;
64686;SDS011;51113;53.646;-113.674;2022-10-18T00:31:34;9.73;;;2.17;;
64686;SDS011;51113;53.646;-113.674;2022-10-18T00:34:09;11.90;;;2.50;;
64686;SDS011;51113;53.646;-113.674;2022-10-18T00:36:41;33.38;;;2.90;;
64686;SDS011;51113;53.646;-113.674;2022-10-18T00:39:14;15.57;;;2.70;;
64686;SDS011;51113;53.646;-113.674;2022-10-18T00:41:46;24.13;;;3.72;;
64686;SDS011;51113;53.646;-113.674;2022-10-18T00:46:45;13.82;;;2.55;;
64686;SDS011;51113;53.646;-113.674;2022-10-18T00:49:17;30.83;;;3.45;;
64686;SDS011;51113;53.646;-113.674;2022-10-18T00:51:56;23.67;;;3.25;;
64686;SDS011;51113;53.646;-113.674;2022-10-18T00:54:28;29.02;;;3.10;;
64686;SDS011;51113;53.646;-113.674;2022-10-18T00:56:58;10.18;;;2.60;;
64686;SDS011;51113;53.646;-113.674;2022-10-18T00:59:26;17.98;;;2.85;;
64686;SDS011;51113;53.646;-113.674;2022-10-18T01:01:56;17.98;;;4.55;;
64686;SDS011;51113;53.646;-113.674;2022-10-18T01:04:24;22.42;;;3.20;;
64686;SDS011;51113;53.646;-113.674;2022-10-18T01:12:14;26.80;;;3.63;;
64686;SDS011;51113;53.646;-113.674;2022-10-18T01:15:06;18.00;;;3.92;;
64686;SDS011;51113;53.646;-113.674;2022-10-18T01:23:31;14.38;;;3.97;;
64686;SDS011;51113;53.646;-113.674;2022-10-18T01:29:27;19.67;;;3.60;;
64686;SDS011;51113;53.646;-113.674;2022-10-18T01:34:34;30.00;;;3.53;;
64686;SDS011;51113;53.646;-113.674;2022-10-18T01:37:07;23.77;;;3.58;;
64686;SDS011;51113;53.646;-113.674;2022-10-18T01:39:39;30.38;;;3.92;;
64686;SDS011;51113;53.646;-113.674;2022-10-18T01:42:11;13.63;;;3.28;;
64686;SDS011;51113;53.646;-113.674;2022-10-18T01:44:44;25.58;;;3.22;;
64686;SDS011;51113;53.646;-113.674;2022-10-18T01:47:13;18.77;;;3.10;;
64686;SDS011;51113;53.646;-113.674;2022-10-18T01:49:43;24.15;;;4.65;;
64686;SDS011;51113;53.646;-113.674;2022-10-18T01:52:12;20.30;;;3.90;;
64686;SDS011;51113;53.646;-113.674;2022-10-18T01:54:44;39.83;;;3.53;;
64686;SDS011;51113;53.646;-113.674;2022-10-18T02:03:31;15.43;;;2.90;;
64686;SDS011;51113;53.646;-113.674;2022-10-18T02:11:14;20.33;;;4.25;;
64686;SDS011;51113;53.646;-113.674;2022-10-18T02:13:55;22.35;;;4.05;;
64686;SDS011;51113;53.646;-113.674;2022-10-18T02:19:37;16.45;;;3.70;;
64686;SDS011;51113;53.646;-113.674;2022-10-18T02:22:10;22.98;;;3.55;;
64686;SDS011;51113;53.646;-113.674;2022-10-18T02:24:42;13.27;;;3.20;;
64686;SDS011;51113;53.646;-113.674;2022-10-18T02:27:15;9.25;;;3.55;;
64686;SDS011;51113;53.646;-113.674;2022-10-18T02:29:44;10.77;;;4.10;;
64686;SDS011;51113;53.646;-113.674;2022-10-18T02:32:16;20.77;;;3.75;;
64686;SDS011;51113;53.646;-113.674;2022-10-18T02:35:38;18.00;;;4.40;;
64686;SDS011;51113;53.646;-113.674;2022-10-18T02:38:02;22.48;;;3.63;;
64686;SDS011;51113;53.646;-113.674;2022-10-18T02:40:34;18.05;;;4.07;;
64686;SDS011;51113;53.646;-113.674;2022-10-18T02:43:04;14.30;;;3.65;;
64686;SDS011;51113;53.646;-113.674;2022-10-18T02:45:33;17.50;;;3.65;;
64686;SDS011;51113;53.646;-113.674;2022-10-18T02:48:02;17.23;;;3.58;;
64686;SDS011;51113;53.646;-113.674;2022-10-18T02:50:31;11.93;;;4.05;;
64686;SDS011;51113;53.646;-113.674;2022-10-18T02:53:00;22.75;;;3.90;;
64686;SDS011;51113;53.646;-113.674;2022-10-18T02:55:28;17.63;;;3.70;;
64686;SDS011;51113;53.646;-113.674;2022-10-18T02:57:57;14.15;;;3.78;;
64686;SDS011;51113;53.646;-113.674;2022-10-18T03:00:25;9.95;;;3.10;;
64686;SDS011;51113;53.646;-113.674;2022-10-18T03:02:54;18.30;;;4.25;;
64686;SDS011;51113;53.646;-113.674;2022-10-18T03:05:22;17.45;;;3.72;;
64686;SDS011;51113;53.646;-113.674;2022-10-18T03:07:51;19.92;;;3.60;;
64686;SDS011;51113;53.646;-113.674;2022-10-18T03:10:19;18.38;;;3.40;;
64686;SDS011;51113;53.646;-113.674;2022-10-18T03:12:48;25.95;;;4.28;;
64686;SDS011;51113;53.646;-113.674;2022-10-18T03:15:16;21.42;;;3.35;;
64686;SDS011;51113;53.646;-113.674;2022-10-18T03:17:45;10.27;;;3.17;;
64686;SDS011;51113;53.646;-113.674;2022-10-18T03:20:13;22.48;;;3.88;;
64686;SDS011;51113;53.646;-113.674;2022-10-18T03:22:42;11.00;;;3.63;;
64686;SDS011;51113;53.646;-113.674;2022-10-18T03:25:11;20.35;;;4.00;;
64686;SDS011;51113;53.646;-113.674;2022-10-18T03:27:39;9.20;;;3.28;;
64686;SDS011;51113;53.646;-113.674;2022-10-18T03:30:10;13.18;;;3.17;;
64686;SDS011;51113;53.646;-113.674;2022-10-18T03:32:39;16.85;;;3.67;;
64686;SDS011;51113;53.646;-113.674;2022-10-18T03:35:08;19.00;;;3.53;;
64686;SDS011;51113;53.646;-113.674;2022-10-18T03:37:37;11.10;;;3.70;;
64686;SDS011;51113;53.646;-113.674;2022-10-18T03:40:06;14.02;;;4.00;;
64686;SDS011;51113;53.646;-113.674;2022-10-18T03:42:35;16.73;;;3.85;;
64686;SDS011;51113;53.646;-113.674;2022-10-18T03:45:03;18.77;;;4.28;;
64686;SDS011;51113;53.646;-113.674;2022-10-18T03:47:32;26.25;;;4.18;;
64686;SDS011;51113;53.646;-113.674;2022-10-18T03:50:01;14.82;;;3.50;;
64686;SDS011;51113;53.646;-113.674;2022-10-18T03:52:29;13.93;;;4.00;;
64686;SDS011;51113;53.646;-113.674;2022-10-18T03:54:58;25.67;;;2.97;;
64686;SDS011;51113;53.646;-113.674;2022-10-18T03:57:27;13.88;;;3.40;;
64686;SDS011;51113;53.646;-113.674;2022-10-18T03:59:55;18.65;;;4.00;;
64686;SDS011;51113;53.646;-113.674;2022-10-18T04:02:25;15.32;;;3.28;;
64686;SDS011;51113;53.646;-113.674;2022-10-18T04:04:54;17.48;;;3.63;;
64686;SDS011;51113;53.646;-113.674;2022-10-18T04:07:25;21.13;;;3.38;;
64686;SDS011;51113;53.646;-113.674;2022-10-18T04:09:53;18.00;;;3.53;;
64686;SDS011;51113;53.646;-113.674;2022-10-18T04:12:22;14.23;;;3.75;;
64686;SDS011;51113;53.646;-113.674;2022-10-18T04:14:50;11.27;;;3.45;;
64686;SDS011;51113;53.646;-113.674;2022-10-18T04:17:21;15.27;;;3.58;;
64686;SDS011;51113;53.646;-113.674;2022-10-18T04:19:49;25.02;;;3.78;;
64686;SDS011;51113;53.646;-113.674;2022-10-18T04:22:18;24.02;;;4.18;;
64686;SDS011;51113;53.646;-113.674;2022-10-18T04:24:46;14.45;;;3.67;;
64686;SDS011;51113;53.646;-113.674;2022-10-18T04:27:15;15.85;;;3.58;;
64686;SDS011;51113;53.646;-113.674;2022-10-18T04:29:43;11.43;;;3.60;;
64686;SDS011;51113;53.646;-113.674;2022-10-18T04:32:12;18.50;;;3.97;;
64686;SDS011;51113;53.646;-113.674;2022-10-18T04:34:40;23.05;;;3.35;;
64686;SDS011;51113;53.646;-113.674;2022-10-18T04:37:13;11.18;;;3.20;;
64686;SDS011;51113;53.646;-113.674;2022-10-18T04:39:42;14.45;;;3.58;;
64686;SDS011;51113;53.646;-113.674;2022-10-18T04:42:19;13.43;;;2.95;;
64686;SDS011;51113;53.646;-113.674;2022-10-18T04:44:48;12.00;;;3.28;;
64686;SDS011;51113;53.646;-113.674;2022-10-18T04:47:17;20.88;;;3.55;;
64686;SDS011;51113;53.646;-113.674;2022-10-18T04:49:45;16.85;;;3.35;;
64686;SDS011;51113;53.646;-113.674;2022-10-18T04:52:14;17.50;;;3.25;;
64686;SDS011;51113;53.646;-113.674;2022-10-18T04:54:42;18.40;;;3.47;;
64686;SDS011;51113;53.646;-113.674;2022-10-18T04:57:11;19.45;;;3.15;;
64686;SDS011;51113;53.646;-113.674;2022-10-18T04:59:39;14.15;;;2.92;;
64686;SDS011;51113;53.646;-113.674;2022-10-18T05:02:08;19.00;;;3.63;;
64686;SDS011;51113;53.646;-113.674;2022-10-18T05:04:36;13.75;;;3.80;;
64686;SDS011;51113;53.646;-113.674;2022-10-18T05:07:04;29.05;;;3.70;;
64686;SDS011;51113;53.646;-113.674;2022-10-18T05:09:33;16.05;;;4.00;;
64686;SDS011;51113;53.646;-113.674;2022-10-18T05:12:01;17.25;;;3.58;;
64686;SDS011;51113;53.646;-113.674;2022-10-18T05:14:30;10.70;;;3.38;;
64686;SDS011;51113;53.646;-113.674;2022-10-18T05:16:58;12.50;;;3.22;;
64686;SDS011;51113;53.646;-113.674;2022-10-18T05:19:27;11.52;;;2.95;;
64686;SDS011;51113;53.646;-113.674;2022-10-18T05:21:55;11.27;;;3.10;;
64686;SDS011;51113;53.646;-113.674;2022-10-18T05:24:24;18.85;;;3.05;;
64686;SDS011;51113;53.646;-113.674;2022-10-18T05:26:53;25.83;;;3.78;;
64686;SDS011;51113;53.646;-113.674;2022-10-18T05:29:21;20.48;;;4.03;;
64686;SDS011;51113;53.646;-113.674;2022-10-18T05:31:50;11.25;;;3.35;;
64686;SDS011;51113;53.646;-113.674;2022-10-18T05:34:19;14.38;;;2.90;;
64686;SDS011;51113;53.646;-113.674;2022-10-18T05:36:47;14.25;;;3.63;;
64686;SDS011;51113;53.646;-113.674;2022-10-18T05:39:18;10.43;;;3.50;;
64686;SDS011;51113;53.646;-113.674;2022-10-18T05:41:46;7.68;;;3.15;;
64686;SDS011;51113;53.646;-113.674;2022-10-18T05:44:15;15.75;;;3.42;;
64686;SDS011;51113;53.646;-113.674;2022-10-18T05:46:44;23.95;;;3.35;;
64686;SDS011;51113;53.646;-113.674;2022-10-18T05:49:12;22.83;;;3.05;;
64686;SDS011;51113;53.646;-113.674;2022-10-18T05:51:42;22.60;;;3.25;;
64686;SDS011;51113;53.646;-113.674;2022-10-18T05:54:10;15.15;;;3.42;;
64686;SDS011;51113;53.646;-113.674;2022-10-18T05:56:40;13.60;;;4.05;;
64686;SDS011;51113;53.646;-113.674;2022-10-18T05:59:08;10.63;;;3.55;;
64686;SDS011;51113;53.646;-113.674;2022-10-18T06:01:39;20.58;;;4.70;;
64686;SDS011;51113;53.646;-113.674;2022-10-18T06:04:08;15.13;;;3.58;;
64686;SDS011;51113;53.646;-113.674;2022-10-18T06:06:37;20.48;;;4.22;;
64686;SDS011;51113;53.646;-113.674;2022-10-18T06:09:06;12.90;;;3.65;;
64686;SDS011;51113;53.646;-113.674;2022-10-18T06:11:35;15.07;;;3.72;;
64686;SDS011;51113;53.646;-113.674;2022-10-18T06:14:04;16.08;;;4.05;;
64686;SDS011;51113;53.646;-113.674;2022-10-18T06:16:34;15.35;;;3.35;;
64686;SDS011;51113;53.646;-113.674;2022-10-18T06:19:07;19.85;;;4.03;;
64686;SDS011;51113;53.646;-113.674;2022-10-18T06:21:37;24.25;;;3.88;;
64686;SDS011;51113;53.646;-113.674;2022-10-18T06:24:06;22.42;;;4.63;;
64686;SDS011;51113;53.646;-113.674;2022-10-18T06:26:34;15.80;;;3.53;;
64686;SDS011;51113;53.646;-113.674;2022-10-18T06:29:03;41.28;;;5.32;;
64686;SDS011;51113;53.646;-113.674;2022-10-18T06:31:31;37.83;;;4.20;;
64686;SDS011;51113;53.646;-113.674;2022-10-18T06:34:00;22.75;;;4.35;;
64686;SDS011;51113;53.646;-113.674;2022-10-18T06:36:29;24.75;;;4.22;;
64686;SDS011;51113;53.646;-113.674;2022-10-18T06:38:57;9.23;;;3.05;;
64686;SDS011;51113;53.646;-113.674;2022-10-18T06:41:26;17.70;;;3.22;;
64686;SDS011;51113;53.646;-113.674;2022-10-18T06:43:55;13.20;;;3.55;;
64686;SDS011;51113;53.646;-113.674;2022-10-18T06:46:25;13.05;;;3.75;;
64686;SDS011;51113;53.646;-113.674;2022-10-18T06:48:53;22.83;;;3.65;;
64686;SDS011;51113;53.646;-113.674;2022-10-18T06:51:23;13.52;;;3.50;;
64686;SDS011;51113;53.646;-113.674;2022-10-18T06:53:51;7.38;;;3.65;;
64686;SDS011;51113;53.646;-113.674;2022-10-18T06:56:39;27.70;;;3.78;;
64686;SDS011;51113;53.646;-113.674;2022-10-18T06:59:08;10.05;;;3.45;;
64686;SDS011;51113;53.646;-113.674;2022-10-18T07:01:37;8.15;;;3.50;;
64686;SDS011;51113;53.646;-113.674;2022-10-18T07:04:05;9.63;;;3.20;;
64686;SDS011;51113;53.646;-113.674;2022-10-18T07:06:34;13.43;;;3.78;;
64686;SDS011;51113;53.646;-113.674;2022-10-18T07:09:02;14.52;;;4.25;;
64686;SDS011;51113;53.646;-113.674;2022-10-18T07:11:31;13.75;;;4.25;;
64686;SDS011;51113;53.646;-113.674;2022-10-18T07:14:00;16.60;;;3.92;;
64686;SDS011;51113;53.646;-113.674;2022-10-18T07:16:32;28.58;;;4.53;;
64686;SDS011;51113;53.646;-113.674;2022-10-18T07:19:01;28.58;;;4.28;;
64686;SDS011;51113;53.646;-113.674;2022-10-18T07:21:30;17.15;;;3.33;;
64686;SDS011;51113;53.646;-113.674;2022-10-18T07:23:59;19.08;;;4.28;;
64686;SDS011;51113;53.646;-113.674;2022-10-18T07:26:28;20.08;;;4.05;;
64686;SDS011;51113;53.646;-113.674;2022-10-18T07:28:59;20.98;;;3.75;;
64686;SDS011;51113;53.646;-113.674;2022-10-18T07:31:32;13.70;;;4.43;;
64686;SDS011;51113;53.646;-113.674;2022-10-18T07:34:02;20.90;;;4.07;;
64686;SDS011;51113;53.646;-113.674;2022-10-18T07:36:32;26.25;;;4.10;;
64686;SDS011;51113;53.646;-113.674;2022-10-18T07:39:01;10.70;;;3.65;;
64686;SDS011;51113;53.646;-113.674;2022-10-18T07:41:30;16.98;;;4.20;;
64686;SDS011;51113;53.646;-113.674;2022-10-18T07:44:02;21.45;;;3.65;;
64686;SDS011;51113;53.646;-113.674;2022-10-18T07:46:31;21.38;;;4.50;;
64686;SDS011;51113;53.646;-113.674;2022-10-18T07:49:00;8.32;;;3.20;;
64686;SDS011;51113;53.646;-113.674;2022-10-18T07:51:28;11.18;;;4.05;;
64686;SDS011;51113;53.646;-113.674;2022-10-18T07:53:59;10.57;;;3.80;;
64686;SDS011;51113;53.646;-113.674;2022-10-18T07:56:27;7.97;;;3.17;;
64686;SDS011;51113;53.646;-113.674;2022-10-18T07:58:56;20.70;;;3.78;;
64686;SDS011;51113;53.646;-113.674;2022-10-18T08:01:25;11.07;;;3.83;;
64686;SDS011;51113;53.646;-113.674;2022-10-18T08:03:53;14.23;;;3.47;;
64686;SDS011;51113;53.646;-113.674;2022-10-18T08:06:22;16.55;;;4.03;;
64686;SDS011;51113;53.646;-113.674;2022-10-18T08:08:50;20.17;;;3.88;;
64686;SDS011;51113;53.646;-113.674;2022-10-18T08:11:20;11.18;;;3.70;;
64686;SDS011;51113;53.646;-113.674;2022-10-18T08:13:50;21.33;;;4.03;;
64686;SDS011;51113;53.646;-113.674;2022-10-18T08:16:24;6.35;;;3.58;;
64686;SDS011;51113;53.646;-113.674;2022-10-18T08:18:56;11.95;;;3.92;;
64686;SDS011;51113;53.646;-113.674;2022-10-18T08:21:25;27.92;;;4.25;;
64686;SDS011;51113;53.646;-113.674;2022-10-18T08:23:54;18.60;;;4.40;;
64686;SDS011;51113;53.646;-113.674;2022-10-18T08:26:23;16.38;;;4.05;;
64686;SDS011;51113;53.646;-113.674;2022-10-18T08:28:51;18.73;;;3.60;;
64686;SDS011;51113;53.646;-113.674;2022-10-18T08:31:40;11.35;;;4.05;;
64686;SDS011;51113;53.646;-113.674;2022-10-18T08:34:09;27.13;;;4.63;;
64686;SDS011;51113;53.646;-113.674;2022-10-18T08:36:44;14.68;;;4.97;;
64686;SDS011;51113;53.646;-113.674;2022-10-18T08:39:12;23.20;;;4.93;;
64686;SDS011;51113;53.646;-113.674;2022-10-18T08:41:58;22.20;;;5.43;;
64686;SDS011;51113;53.646;-113.674;2022-10-18T08:44:42;21.88;;;4.85;;
64686;SDS011;51113;53.646;-113.674;2022-10-18T08:47:16;14.98;;;4.10;;
64686;SDS011;51113;53.646;-113.674;2022-10-18T08:50:05;19.63;;;4.65;;
64686;SDS011;51113;53.646;-113.674;2022-10-18T08:55:40;23.08;;;4.15;;
64686;SDS011;51113;53.646;-113.674;2022-10-18T08:58:16;8.70;;;3.80;;
64686;SDS011;51113;53.646;-113.674;2022-10-18T09:01:00;14.90;;;4.40;;
64686;SDS011;51113;53.646;-113.674;2022-10-18T09:09:52;17.52;;;4.60;;
64686;SDS011;51113;53.646;-113.674;2022-10-18T09:12:50;15.45;;;4.32;;
64686;SDS011;51113;53.646;-113.674;2022-10-18T09:18:27;10.00;;;4.18;;
64686;SDS011;51113;53.646;-113.674;2022-10-18T09:26:32;17.85;;;4.20;;
64686;SDS011;51113;53.646;-113.674;2022-10-18T09:31:55;23.13;;;4.85;;
64686;SDS011;51113;53.646;-113.674;2022-10-18T09:35:11;17.27;;;4.05;;
64686;SDS011;51113;53.646;-113.674;2022-10-18T09:37:41;20.42;;;5.13;;
64686;SDS011;51113;53.646;-113.674;2022-10-18T09:42:51;10.60;;;3.72;;
64686;SDS011;51113;53.646;-113.674;2022-10-18T09:45:29;16.88;;;4.13;;
64686;SDS011;51113;53.646;-113.674;2022-10-18T09:51:03;8.93;;;3.88;;
64686;SDS011;51113;53.646;-113.674;2022-10-18T09:57:05;10.80;;;4.35;;
64686;SDS011;51113;53.646;-113.674;2022-10-18T09:59:50;8.70;;;4.25;;
64686;SDS011;51113;53.646;-113.674;2022-10-18T10:02:20;14.65;;;4.28;;
64686;SDS011;51113;53.646;-113.674;2022-10-18T10:04:50;18.48;;;5.53;;
64686;SDS011;51113;53.646;-113.674;2022-10-18T10:07:25;15.35;;;4.57;;
64686;SDS011;51113;53.646;-113.674;2022-10-18T10:10:29;13.90;;;4.00;;
64686;SDS011;51113;53.646;-113.674;2022-10-18T10:13:02;12.60;;;4.00;;
64686;SDS011;51113;53.646;-113.674;2022-10-18T10:15:34;18.58;;;4.30;;
64686;SDS011;51113;53.646;-113.674;2022-10-18T10:21:13;21.33;;;4.35;;
64686;SDS011;51113;53.646;-113.674;2022-10-18T10:23:53;17.80;;;4.43;;
64686;SDS011;51113;53.646;-113.674;2022-10-18T10:26:28;14.13;;;3.95;;
64686;SDS011;51113;53.646;-113.674;2022-10-18T10:29:00;18.88;;;4.93;;
64686;SDS011;51113;53.646;-113.674;2022-10-18T10:31:31;12.20;;;3.75;;
64686;SDS011;51113;53.646;-113.674;2022-10-18T10:39:18;16.52;;;4.63;;
64686;SDS011;51113;53.646;-113.674;2022-10-18T10:41:52;13.90;;;4.13;;
64686;SDS011;51113;53.646;-113.674;2022-10-18T10:44:24;19.35;;;5.57;;
64686;SDS011;51113;53.646;-113.674;2022-10-18T10:46:56;15.50;;;4.22;;
64686;SDS011;51113;53.646;-113.674;2022-10-18T10:49:38;21.27;;;4.38;;
64686;SDS011;51113;53.646;-113.674;2022-10-18T10:52:19;13.20;;;5.07;;
64686;SDS011;51113;53.646;-113.674;2022-10-18T10:55:02;18.77;;;4.07;;
64686;SDS011;51113;53.646;-113.674;2022-10-18T10:57:52;10.07;;;4.00;;
64686;SDS011;51113;53.646;-113.674;2022-10-18T11:03:19;18.20;;;5.57;;
64686;SDS011;51113;53.646;-113.674;2022-10-18T11:05:55;9.07;;;3.85;;
64686;SDS011;51113;53.646;-113.674;2022-10-18T11:08:29;13.68;;;3.72;;
64686;SDS011;51113;53.646;-113.674;2022-10-18T11:11:22;8.55;;;4.38;;
64686;SDS011;51113;53.646;-113.674;2022-10-18T11:16:52;17.15;;;5.10;;
64686;SDS011;51113;53.646;-113.674;2022-10-18T11:19:44;12.40;;;4.82;;
64686;SDS011;51113;53.646;-113.674;2022-10-18T11:22:30;16.63;;;4.53;;
64686;SDS011;51113;53.646;-113.674;2022-10-18T11:25:03;11.52;;;4.72;;
64686;SDS011;51113;53.646;-113.674;2022-10-18T11:27:39;17.05;;;4.97;;
64686;SDS011;51113;53.646;-113.674;2022-10-18T11:33:20;25.55;;;4.80;;
64686;SDS011;51113;53.646;-113.674;2022-10-18T11:36:19;16.30;;;4.53;;
64686;SDS011;51113;53.646;-113.674;2022-10-18T11:39:04;19.55;;;5.82;;
64686;SDS011;51113;53.646;-113.674;2022-10-18T11:44:34;20.15;;;6.05;;
64686;SDS011;51113;53.646;-113.674;2022-10-18T11:47:18;19.02;;;6.43;;
64686;SDS011;51113;53.646;-113.674;2022-10-18T12:06:18;17.65;;;7.05;;
64686;SDS011;51113;53.646;-113.674;2022-10-18T12:08:53;13.27;;;6.40;;
64686;SDS011;51113;53.646;-113.674;2022-10-18T12:11:34;15.27;;;6.63;;
64686;SDS011;51113;53.646;-113.674;2022-10-18T12:14:21;15.02;;;6.85;;
64686;SDS011;51113;53.646;-113.674;2022-10-18T12:16:55;19.02;;;7.38;;
64686;SDS011;51113;53.646;-113.674;2022-10-18T12:19:47;17.13;;;6.80;;
64686;SDS011;51113;53.646;-113.674;2022-10-18T12:23:04;17.98;;;8.30;;
64686;SDS011;51113;53.646;-113.674;2022-10-18T12:25:31;15.98;;;6.97;;
64686;SDS011;51113;53.646;-113.674;2022-10-18T12:28:08;21.15;;;8.10;;
64686;SDS011;51113;53.646;-113.674;2022-10-18T12:30:53;19.17;;;7.93;;
64686;SDS011;51113;53.646;-113.674;2022-10-18T12:33:26;16.63;;;7.43;;
64686;SDS011;51113;53.646;-113.674;2022-10-18T12:38:38;25.48;;;8.10;;
64686;SDS011;51113;53.646;-113.674;2022-10-18T12:43:52;21.65;;;8.25;;
64686;SDS011;51113;53.646;-113.674;2022-10-18T12:46:41;22.98;;;8.35;;
64686;SDS011;51113;53.646;-113.674;2022-10-18T12:49:31;16.10;;;7.75;;
64686;SDS011;51113;53.646;-113.674;2022-10-18T12:52:18;16.27;;;7.60;;
64686;SDS011;51113;53.646;-113.674;2022-10-18T13:18:53;22.48;;;8.30;;
64686;SDS011;51113;53.646;-113.674;2022-10-18T13:32:46;20.08;;;9.35;;
64686;SDS011;51113;53.646;-113.674;2022-10-18T13:35:59;25.25;;;8.80;;
64686;SDS011;51113;53.646;-113.674;2022-10-18T13:41:15;28.80;;;9.43;;
64686;SDS011;51113;53.646;-113.674;2022-10-18T14:06:33;20.80;;;10.50;;
64686;SDS011;51113;53.646;-113.674;2022-10-18T14:12:19;15.77;;;8.25;;
64686;SDS011;51113;53.646;-113.674;2022-10-18T14:15:35;24.80;;;8.95;;
64686;SDS011;51113;53.646;-113.674;2022-10-18T14:20:32;27.70;;;10.05;;
64686;SDS011;51113;53.646;-113.674;2022-10-18T14:23:38;25.20;;;9.88;;
64686;SDS011;51113;53.646;-113.674;2022-10-18T14:26:14;24.85;;;9.38;;
64686;SDS011;51113;53.646;-113.674;2022-10-18T14:29:06;26.88;;;9.38;;
64686;SDS011;51113;53.646;-113.674;2022-10-18T14:31:47;22.65;;;9.05;;
64686;SDS011;51113;53.646;-113.674;2022-10-18T14:34:21;26.23;;;9.60;;
64686;SDS011;51113;53.646;-113.674;2022-10-18T14:36:49;17.38;;;8.75;;
64686;SDS011;51113;53.646;-113.674;2022-10-18T14:39:23;27.15;;;10.18;;
64686;SDS011;51113;53.646;-113.674;2022-10-18T14:41:56;24.60;;;10.10;;
64686;SDS011;51113;53.646;-113.674;2022-10-18T14:44:26;23.67;;;8.52;;
64686;SDS011;51113;53.646;-113.674;2022-10-18T14:47:12;22.30;;;9.20;;
64686;SDS011;51113;53.646;-113.674;2022-10-18T14:49:48;22.20;;;8.73;;
64686;SDS011;51113;53.646;-113.674;2022-10-18T14:52:22;29.80;;;9.80;;
64686;SDS011;51113;53.646;-113.674;2022-10-18T14:55:00;29.30;;;9.40;;
64686;SDS011;51113;53.646;-113.674;2022-10-18T14:57:30;19.20;;;8.60;;
64686;SDS011;51113;53.646;-113.674;2022-10-18T15:00:17;15.82;;;8.40;;
64686;SDS011;51113;53.646;-113.674;2022-10-18T15:02:51;17.90;;;9.57;;
64686;SDS011;51113;53.646;-113.674;2022-10-18T15:05:23;23.60;;;8.63;;
64686;SDS011;51113;53.646;-113.674;2022-10-18T15:07:53;22.63;;;8.68;;
64686;SDS011;51113;53.646;-113.674;2022-10-18T15:10:27;21.88;;;9.85;;
64686;SDS011;51113;53.646;-113.674;2022-10-18T15:12:59;26.65;;;9.32;;
64686;SDS011;51113;53.646;-113.674;2022-10-18T15:15:38;17.33;;;8.88;;
64686;SDS011;51113;53.646;-113.674;2022-10-18T15:18:13;21.27;;;8.90;;
64686;SDS011;51113;53.646;-113.674;2022-10-18T15:21:05;18.27;;;8.98;;
64686;SDS011;51113;53.646;-113.674;2022-10-18T15:23:46;28.15;;;10.00;;
64686;SDS011;51113;53.646;-113.674;2022-10-18T15:26:20;30.67;;;9.20;;
64686;SDS011;51113;53.646;-113.674;2022-10-18T15:28:53;19.52;;;9.02;;
64686;SDS011;51113;53.646;-113.674;2022-10-18T15:31:41;20.30;;;9.70;;
64686;SDS011;51113;53.646;-113.674;2022-10-18T15:36:45;22.98;;;8.93;;
64686;SDS011;51113;53.646;-113.674;2022-10-18T15:39:19;20.42;;;9.10;;
64686;SDS011;51113;53.646;-113.674;2022-10-18T15:41:59;32.55;;;9.45;;
64686;SDS011;51113;53.646;-113.674;2022-10-18T15:49:51;27.85;;;9.75;;
64686;SDS011;51113;53.646;-113.674;2022-10-18T15:55:48;18.67;;;8.70;;
64686;SDS011;51113;53.646;-113.674;2022-10-18T15:58:03;22.73;;;8.40;;
64686;SDS011;51113;53.646;-113.674;2022-10-18T16:00:33;19.08;;;9.20;;
64686;SDS011;51113;53.646;-113.674;2022-10-18T16:03:02;27.77;;;9.63;;
64686;SDS011;51113;53.646;-113.674;2022-10-18T16:05:31;16.80;;;8.80;;
64686;SDS011;51113;53.646;-113.674;2022-10-18T16:07:59;23.60;;;8.50;;
64686;SDS011;51113;53.646;-113.674;2022-10-18T16:10:28;16.88;;;8.65;;
64686;SDS011;51113;53.646;-113.674;2022-10-18T16:12:56;27.13;;;9.65;;
64686;SDS011;51113;53.646;-113.674;2022-10-18T16:15:25;29.85;;;9.15;;
64686;SDS011;51113;53.646;-113.674;2022-10-18T16:17:53;30.30;;;9.30;;
64686;SDS011;51113;53.646;-113.674;2022-10-18T16:20:22;51.33;;;9.82;;
64686;SDS011;51113;53.646;-113.674;2022-10-18T16:22:52;25.17;;;9.10;;
64686;SDS011;51113;53.646;-113.674;2022-10-18T16:25:20;25.80;;;9.55;;
64686;SDS011;51113;53.646;-113.674;2022-10-18T16:27:49;16.15;;;8.07;;
64686;SDS011;51113;53.646;-113.674;2022-10-18T16:30:18;28.08;;;9.10;;
64686;SDS011;51113;53.646;-113.674;2022-10-18T16:32:47;23.60;;;9.75;;
64686;SDS011;51113;53.646;-113.674;2022-10-18T16:35:16;25.27;;;9.60;;
64686;SDS011;51113;53.646;-113.674;2022-10-18T16:37:44;21.75;;;9.82;;
64686;SDS011;51113;53.646;-113.674;2022-10-18T16:40:18;24.73;;;9.10;;
64686;SDS011;51113;53.646;-113.674;2022-10-18T16:42:51;28.65;;;9.68;;
64686;SDS011;51113;53.646;-113.674;2022-10-18T16:45:19;29.00;;;10.35;;
64686;SDS011;51113;53.646;-113.674;2022-10-18T16:47:48;38.03;;;10.02;;
64686;SDS011;51113;53.646;-113.674;2022-10-18T16:50:17;31.98;;;9.82;;
64686;SDS011;51113;53.646;-113.674;2022-10-18T16:52:48;27.70;;;10.43;;
64686;SDS011;51113;53.646;-113.674;2022-10-18T16:55:16;36.08;;;9.90;;
64686;SDS011;51113;53.646;-113.674;2022-10-18T16:57:51;28.40;;;10.35;;
64686;SDS011;51113;53.646;-113.674;2022-10-18T17:00:20;24.90;;;9.55;;
64686;SDS011;51113;53.646;-113.674;2022-10-18T17:02:50;26.05;;;10.05;;
64686;SDS011;51113;53.646;-113.674;2022-10-18T17:05:18;28.02;;;10.45;;
64686;SDS011;51113;53.646;-113.674;2022-10-18T17:07:47;24.73;;;10.00;;
64686;SDS011;51113;53.646;-113.674;2022-10-18T17:10:18;19.38;;;9.75;;
64686;SDS011;51113;53.646;-113.674;2022-10-18T17:12:48;25.30;;;10.93;;
64686;SDS011;51113;53.646;-113.674;2022-10-18T17:15:16;21.88;;;10.82;;
64686;SDS011;51113;53.646;-113.674;2022-10-18T17:17:45;34.88;;;10.15;;
64686;SDS011;51113;53.646;-113.674;2022-10-18T17:20:24;24.50;;;10.68;;
64686;SDS011;51113;53.646;-113.674;2022-10-18T17:22:53;23.60;;;11.25;;
64686;SDS011;51113;53.646;-113.674;2022-10-18T17:25:23;29.85;;;10.73;;
64686;SDS011;51113;53.646;-113.674;2022-10-18T17:27:52;36.72;;;10.63;;
64686;SDS011;51113;53.646;-113.674;2022-10-18T17:30:20;24.95;;;10.73;;
64686;SDS011;51113;53.646;-113.674;2022-10-18T17:32:49;33.40;;;11.68;;